Time;durP1;ratioP1;P1;durP2;ratioP2;P2;SDS_P1;SDS_P2;PMS_P1;PMS_P2;Temp;Humidity;BMP_temperature;BMP_pressure;BME280_temperature;BME280_humidity;BME280_pressure;Samples;Min_cycle;Max_cycle;Signal;HPM_P1;HPM_P2
2023/10/01 00:00:44;;;;;;;;;;;23.40;55.10;;;;;;5096118;28;19963;-60
2023/10/01 00:03:14;;;;;;;;;;;23.40;55.10;;;;;;5096359;28;19975;-60
2023/10/01 00:05:41;;;;;;;;;;;23.40;55.10;;;;;;5096922;28;19982;-61
2023/10/01 00:08:08;;;;;;;;;;;23.40;55.10;;;;;;5097016;28;19927;-62
2023/10/01 00:10:35;;;;;;;;;;;23.40;55.10;;;;;;5095913;28;20368;-61
2023/10/01 00:13:02;;;;;;;;;;;23.50;55.10;;;;;;5097384;28;19923;-60
2023/10/01 00:15:30;;;;;;;;;;;23.50;55.10;;;;;;5096896;28;19950;-60
2023/10/01 00:17:57;;;;;;;;;;;23.50;55.00;;;;;;5097585;28;19924;-60
2023/10/01 00:20:25;;;;;;;;;;;23.50;55.00;;;;;;5097189;28;20466;-60
2023/10/01 00:22:59;;;;;;;;;;;23.50;55.00;;;;;;5096542;28;20014;-60
2023/10/01 00:25:27;;;;;;;;;;;23.50;55.00;;;;;;5096555;28;20247;-61
2023/10/01 00:27:58;;;;;;;;;;;23.50;55.10;;;;;;5096485;28;19928;-60
2023/10/01 00:30:31;;;;;;;;;;;23.50;55.00;;;;;;5096177;28;19954;-61
2023/10/01 00:33:04;;;;;;;;;;;23.50;55.00;;;;;;5095148;28;20001;-60
2023/10/01 00:35:31;;;;;;;;;;;23.40;55.00;;;;;;5096283;28;20376;-61
2023/10/01 00:37:58;;;;;;;;;;;23.50;55.10;;;;;;5096758;28;19924;-60
2023/10/01 00:40:27;;;;;;;;;;;23.40;55.00;;;;;;5096430;28;20303;-61
2023/10/01 00:42:54;;;;;;;;;;;23.40;55.00;;;;;;5096770;28;19970;-60
2023/10/01 00:45:21;;;;;;;;;;;23.40;55.00;;;;;;5095946;28;20007;-61
2023/10/01 00:47:49;;;;;;;;;;;23.40;55.00;;;;;;5097136;28;20277;-60
2023/10/01 00:50:21;;;;;;;;;;;23.40;55.00;;;;;;5096166;28;19924;-62
2023/10/01 00:52:49;;;;;;;;;;;23.40;55.00;;;;;;5095836;28;19924;-61
2023/10/01 00:55:17;;;;;;;;;;;23.40;55.10;;;;;;5096100;28;19924;-62
2023/10/01 00:57:44;;;;;;;;;;;23.40;55.00;;;;;;5096027;28;19924;-61
2023/10/01 01:00:13;;;;;;;;;;;23.40;55.10;;;;;;5095995;28;20354;-61
2023/10/01 01:02:47;;;;;;;;;;;23.40;55.00;;;;;;5096342;28;19928;-60
2023/10/01 01:05:34;;;;;;;;;;;23.40;55.10;;;;;;5094766;28;19970;-60
2023/10/01 01:08:10;;;;;;;;;;;23.40;55.10;;;;;;5096155;28;20288;-60
2023/10/01 01:10:41;;;;;;;;;;;23.40;55.10;;;;;;5096058;28;19923;-61
2023/10/01 01:13:08;;;;;;;;;;;23.40;55.10;;;;;;5095902;28;19928;-60
2023/10/01 01:15:38;;;;;;;;;;;23.40;55.10;;;;;;5095409;28;19971;-61
2023/10/01 01:18:07;;;;;;;;;;;23.40;55.10;;;;;;5095851;28;19928;-61
2023/10/01 01:20:36;;;;;;;;;;;23.40;55.10;;;;;;5096004;28;19924;-61
2023/10/01 01:23:07;;;;;;;;;;;23.40;55.10;;;;;;5094314;28;19973;-60
2023/10/01 01:25:35;;;;;;;;;;;23.40;55.10;;;;;;5095185;28;19924;-60
2023/10/01 01:28:05;;;;;;;;;;;23.40;55.10;;;;;;5095463;28;19925;-61
2023/10/01 01:30:33;;;;;;;;;;;23.40;55.10;;;;;;5095849;28;19935;-61
2023/10/01 01:33:00;;;;;;;;;;;23.40;55.00;;;;;;5095160;28;19928;-60
2023/10/01 01:35:30;;;;;;;;;;;23.40;55.00;;;;;;5095480;28;19928;-61
2023/10/01 01:38:01;;;;;;;;;;;23.40;55.00;;;;;;5095373;28;19924;-60
2023/10/01 01:40:40;;;;;;;;;;;23.40;55.00;;;;;;5094918;28;19924;-61
2023/10/01 01:43:21;;;;;;;;;;;23.40;55.10;;;;;;5095937;28;19946;-60
2023/10/01 01:45:54;;;;;;;;;;;23.40;54.90;;;;;;5095138;28;20380;-60
2023/10/01 01:48:31;;;;;;;;;;;23.40;54.90;;;;;;5095824;28;20018;-60
2023/10/01 01:51:00;;;;;;;;;;;23.40;54.90;;;;;;5093651;28;19924;-60
2023/10/01 01:53:35;;;;;;;;;;;23.40;55.00;;;;;;5095053;28;20023;-61
2023/10/01 01:56:04;;;;;;;;;;;23.40;55.00;;;;;;5094543;28;19982;-60
2023/10/01 01:58:32;;;;;;;;;;;23.40;55.00;;;;;;5094998;28;20063;-60
2023/10/01 02:01:17;;;;;;;;;;;23.40;55.00;;;;;;5094795;28;19964;-60
2023/10/01 02:03:51;;;;;;;;;;;23.40;55.00;;;;;;5095081;28;20023;-60
2023/10/01 02:06:27;;;;;;;;;;;23.40;55.00;;;;;;5094120;28;19930;-60
2023/10/01 02:08:57;;;;;;;;;;;23.40;55.10;;;;;;5095085;28;19931;-60
2023/10/01 02:11:25;;;;;;;;;;;23.40;55.00;;;;;;5094134;28;19977;-61
2023/10/01 02:13:54;;;;;;;;;;;23.40;55.10;;;;;;5094955;28;19965;-61
2023/10/01 02:16:40;;;;;;;;;;;23.40;55.10;;;;;;5094579;28;19932;-61
2023/10/01 02:19:11;;;;;;;;;;;23.40;55.10;;;;;;5094838;28;20007;-61
2023/10/01 02:27:15;;;;;;;;;;;23.40;55.10;;;;;;5094769;28;19954;-61
2023/10/01 02:29:45;;;;;;;;;;;23.40;55.10;;;;;;5094317;28;19970;-61
2023/10/01 02:32:14;;;;;;;;;;;23.40;55.10;;;;;;5094883;28;19971;-64
2023/10/01 02:34:42;;;;;;;;;;;23.30;55.10;;;;;;5094561;28;19925;-61
2023/10/01 02:37:10;;;;;;;;;;;23.40;55.10;;;;;;5093675;28;19970;-62
2023/10/01 02:39:40;;;;;;;;;;;23.30;55.10;;;;;;5094672;28;20261;-61
2023/10/01 02:42:09;;;;;;;;;;;23.40;55.10;;;;;;5094466;28;19934;-61
2023/10/01 02:44:46;;;;;;;;;;;23.40;55.20;;;;;;5094262;28;20443;-61
2023/10/01 02:47:19;;;;;;;;;;;23.40;55.20;;;;;;5094849;28;19964;-60
2023/10/01 02:49:49;;;;;;;;;;;23.40;55.20;;;;;;5094520;28;19924;-61
2023/10/01 02:52:17;;;;;;;;;;;23.30;55.10;;;;;;5094295;28;20438;-61
2023/10/01 02:54:47;;;;;;;;;;;23.40;55.10;;;;;;5094341;28;20357;-61
2023/10/01 02:57:26;;;;;;;;;;;23.40;55.10;;;;;;5093904;28;19953;-61
2023/10/01 03:02:49;;;;;;;;;;;23.40;55.10;;;;;;5094241;28;19970;-60
2023/10/01 03:05:23;;;;;;;;;;;23.40;55.10;;;;;;5093136;28;19931;-61
2023/10/01 03:07:51;;;;;;;;;;;23.40;55.10;;;;;;5094191;28;20327;-60
2023/10/01 03:10:29;;;;;;;;;;;23.40;55.00;;;;;;5093891;28;19978;-61
2023/10/01 03:13:01;;;;;;;;;;;23.40;55.00;;;;;;5094176;28;19932;-61
2023/10/01 03:15:29;;;;;;;;;;;23.40;55.10;;;;;;5093779;28;19928;-60
2023/10/01 03:17:57;;;;;;;;;;;23.40;55.10;;;;;;5094341;28;19932;-61
2023/10/01 03:23:25;;;;;;;;;;;23.40;55.10;;;;;;5092651;28;20395;-61
2023/10/01 03:26:00;;;;;;;;;;;23.30;55.10;;;;;;5093302;28;19924;-60
2023/10/01 03:28:32;;;;;;;;;;;23.30;55.10;;;;;;5093309;28;19937;-60
2023/10/01 03:31:09;;;;;;;;;;;23.30;55.10;;;;;;5093755;28;19931;-60
2023/10/01 03:33:37;;;;;;;;;;;23.30;55.20;;;;;;5093412;28;19924;-60
2023/10/01 03:36:09;;;;;;;;;;;23.30;55.20;;;;;;5093773;28;19932;-61
2023/10/01 03:38:44;;;;;;;;;;;23.30;55.20;;;;;;5092983;28;19927;-60
2023/10/01 03:41:27;;;;;;;;;;;23.30;55.20;;;;;;5093684;28;20388;-60
2023/10/01 03:43:56;;;;;;;;;;;23.30;55.20;;;;;;5093434;28;19928;-61
2023/10/01 03:46:26;;;;;;;;;;;23.30;55.30;;;;;;5093338;28;19927;-60
2023/10/01 03:48:58;;;;;;;;;;;23.30;55.20;;;;;;5093440;28;19924;-61
2023/10/01 03:52:04;;;;;;;;;;;23.30;55.30;;;;;;5093784;28;19928;-60
2023/10/01 03:54:14;;;;;;;;;;;23.30;55.30;;;;;;5093206;28;19940;-60
2023/10/01 03:56:47;;;;;;;;;;;23.30;55.30;;;;;;5093535;28;19924;-60
2023/10/01 03:59:16;;;;;;;;;;;23.30;55.30;;;;;;5093355;28;19924;-61
2023/10/01 04:02:00;;;;;;;;;;;23.30;55.30;;;;;;5092590;28;20028;-60
2023/10/01 04:04:31;;;;;;;;;;;23.30;55.30;;;;;;5093235;28;19924;-61
2023/10/01 04:07:10;;;;;;;;;;;23.30;55.30;;;;;;5093539;28;19924;-60
2023/10/01 04:09:46;;;;;;;;;;;23.30;55.30;;;;;;5093599;28;19931;-60
2023/10/01 04:12:20;;;;;;;;;;;23.30;55.30;;;;;;5093438;28;19924;-61
2023/10/01 04:14:52;;;;;;;;;;;23.30;55.30;;;;;;5092878;28;19932;-60
2023/10/01 04:17:20;;;;;;;;;;;23.30;55.80;;;;;;5093261;28;20505;-61
2023/10/01 04:20:00;;;;;;;;;;;23.30;55.30;;;;;;5093406;28;19924;-61
2023/10/01 04:22:29;;;;;;;;;;;23.30;55.30;;;;;;5092547;28;19982;-61
2023/10/01 04:25:10;;;;;;;;;;;23.30;55.30;;;;;;5092812;28;19924;-61
2023/10/01 04:27:41;;;;;;;;;;;23.30;55.30;;;;;;5093138;28;19994;-60
2023/10/01 04:30:10;;;;;;;;;;;23.30;55.20;;;;;;5093436;28;19932;-61
2023/10/01 04:32:39;;;;;;;;;;;23.30;55.20;;;;;;5091640;28;19959;-61
2023/10/01 04:35:16;;;;;;;;;;;23.30;55.10;;;;;;5092046;28;19979;-60
2023/10/01 04:37:48;;;;;;;;;;;23.30;55.20;;;;;;5093361;28;19924;-60
2023/10/01 04:43:04;;;;;;;;;;;23.20;55.60;;;;;;5095426;28;19927;-60
2023/10/01 04:45:40;;;;;;;;;;;23.20;55.00;;;;;;5096372;28;19932;-60
2023/10/01 04:48:24;;;;;;;;;;;23.10;54.90;;;;;;5095980;28;19925;-60
2023/10/01 04:50:55;;;;;;;;;;;23.10;54.60;;;;;;5095860;28;19924;-60
2023/10/01 04:53:23;;;;;;;;;;;23.10;54.40;;;;;;5094485;28;19924;-60
2023/10/01 04:56:05;;;;;;;;;;;23.20;54.60;;;;;;5095584;28;19928;-60
2023/10/01 04:58:36;;;;;;;;;;;23.20;54.40;;;;;;5096383;28;19971;-60
2023/10/01 05:01:10;;;;;;;;;;;23.20;54.40;;;;;;5095801;28;20011;-61
2023/10/01 05:03:39;;;;;;;;;;;23.20;54.30;;;;;;5096686;28;19973;-60
2023/10/01 05:06:08;;;;;;;;;;;23.30;54.20;;;;;;5096121;28;19924;-60
2023/10/01 05:08:38;;;;;;;;;;;23.30;54.00;;;;;;5095125;28;19924;-60
2023/10/01 05:11:10;;;;;;;;;;;23.30;53.70;;;;;;5095185;28;19924;-60
2023/10/01 05:13:39;;;;;;;;;;;23.30;53.70;;;;;;5095476;28;19932;-60
2023/10/01 05:16:07;;;;;;;;;;;23.40;53.80;;;;;;5095685;28;19924;-60
2023/10/01 05:18:34;;;;;;;;;;;23.40;53.50;;;;;;5095662;28;19924;-60
2023/10/01 05:21:09;;;;;;;;;;;23.40;53.30;;;;;;5095634;28;19930;-60
2023/10/01 05:23:36;;;;;;;;;;;23.50;53.20;;;;;;5095886;28;20519;-60
2023/10/01 05:26:05;;;;;;;;;;;23.50;53.00;;;;;;5095415;28;20334;-61
2023/10/01 05:28:34;;;;;;;;;;;23.60;52.90;;;;;;5092104;28;19928;-61
2023/10/01 05:31:06;;;;;;;;;;;23.60;52.70;;;;;;5085936;28;19924;-61
2023/10/01 05:33:33;;;;;;;;;;;23.60;52.60;;;;;;5082565;28;19924;-60
2023/10/01 05:36:04;;;;;;;;;;;23.70;52.40;;;;;;5085429;28;19932;-60
2023/10/01 05:38:34;;;;;;;;;;;23.70;52.30;;;;;;5088102;28;19924;-60
2023/10/01 05:41:09;;;;;;;;;;;23.70;52.10;;;;;;5081854;28;19928;-61
2023/10/01 05:43:43;;;;;;;;;;;23.80;51.90;;;;;;5081096;28;19929;-60
2023/10/01 05:46:10;;;;;;;;;;;23.80;51.90;;;;;;5086214;28;19924;-61
2023/10/01 05:48:39;;;;;;;;;;;23.90;51.60;;;;;;5094498;28;20360;-60
2023/10/01 05:51:15;;;;;;;;;;;23.90;51.50;;;;;;5078506;28;19931;-61
2023/10/01 05:53:42;;;;;;;;;;;24.00;51.40;;;;;;5074561;28;19935;-60
2023/10/01 05:56:10;;;;;;;;;;;24.00;51.20;;;;;;5074612;28;19924;-61
2023/10/01 05:58:38;;;;;;;;;;;24.00;51.10;;;;;;5074954;28;20135;-60
2023/10/01 06:01:05;;;;;;;;;;;24.10;51.00;;;;;;5074453;28;19925;-61
2023/10/01 06:03:33;;;;;;;;;;;24.10;50.80;;;;;;5074098;28;19929;-60
2023/10/01 06:06:13;;;;;;;;;;;24.20;50.70;;;;;;5073821;28;20016;-60
2023/10/01 06:08:45;;;;;;;;;;;24.10;50.60;;;;;;5074956;28;20393;-60
2023/10/01 06:11:15;;;;;;;;;;;24.20;50.50;;;;;;5074127;28;20006;-60
2023/10/01 06:13:49;;;;;;;;;;;24.30;50.40;;;;;;5074489;28;19924;-60
2023/10/01 06:16:24;;;;;;;;;;;24.30;50.40;;;;;;5073698;28;19960;-61
2023/10/01 06:18:56;;;;;;;;;;;24.30;50.20;;;;;;5073316;28;19925;-60
2023/10/01 06:21:26;;;;;;;;;;;24.30;50.10;;;;;;5073890;28;20015;-60
2023/10/01 06:23:54;;;;;;;;;;;24.30;50.00;;;;;;5074556;28;19947;-60
2023/10/01 06:26:38;;;;;;;;;;;24.40;50.00;;;;;;5092344;28;19924;-60
2023/10/01 06:29:07;;;;;;;;;;;24.40;49.90;;;;;;5093377;28;19924;-60
2023/10/01 06:34:23;;;;;;;;;;;24.50;49.80;;;;;;5094837;28;19972;-61
2023/10/01 06:36:56;;;;;;;;;;;24.50;49.70;;;;;;5094544;28;19947;-60
2023/10/01 06:39:28;;;;;;;;;;;24.50;49.60;;;;;;5094540;28;20448;-60
2023/10/01 06:42:18;;;;;;;;;;;24.60;49.50;;;;;;5095171;28;19924;-60
2023/10/01 06:44:43;;;;;;;;;;;24.60;49.40;;;;;;5093399;28;20265;-60
2023/10/01 06:47:17;;;;;;;;;;;24.60;49.40;;;;;;5093610;28;19931;-60
2023/10/01 06:49:58;;;;;;;;;;;24.70;49.30;;;;;;5093182;28;19979;-60
2023/10/01 06:52:29;;;;;;;;;;;24.70;49.20;;;;;;5094615;28;19924;-60
2023/10/01 06:54:57;;;;;;;;;;;24.70;49.10;;;;;;5093873;28;20399;-61
2023/10/01 06:57:27;;;;;;;;;;;24.70;49.00;;;;;;5093782;28;20266;-60
2023/10/01 06:59:56;;;;;;;;;;;24.80;49.00;;;;;;5093663;28;19924;-60
2023/10/01 07:02:25;;;;;;;;;;;24.80;48.90;;;;;;5093099;28;20007;-61
2023/10/01 07:04:56;;;;;;;;;;;24.80;48.80;;;;;;5092464;28;20632;-60
2023/10/01 07:07:43;;;;;;;;;;;24.80;48.80;;;;;;5093113;28;19971;-60
2023/10/01 07:10:10;;;;;;;;;;;24.90;48.80;;;;;;5093000;28;20437;-60
2023/10/01 07:12:53;;;;;;;;;;;24.90;48.80;;;;;;5093561;28;19966;-60
2023/10/01 07:15:21;;;;;;;;;;;24.90;48.70;;;;;;5092630;28;20026;-60
2023/10/01 07:17:48;;;;;;;;;;;24.90;48.70;;;;;;5093479;28;19932;-61
2023/10/01 07:20:18;;;;;;;;;;;24.90;48.60;;;;;;5093150;28;19924;-60
2023/10/01 07:22:46;;;;;;;;;;;24.90;48.50;;;;;;5091583;28;19968;-60
2023/10/01 07:28:00;;;;;;;;;;;25.00;48.50;;;;;;5092652;28;19931;-60
2023/10/01 07:30:45;;;;;;;;;;;25.00;48.30;;;;;;5092869;28;20342;-61
2023/10/01 07:33:20;;;;;;;;;;;25.10;48.30;;;;;;5093119;28;19950;-61
2023/10/01 07:36:01;;;;;;;;;;;25.10;48.20;;;;;;5092073;28;19935;-60
2023/10/01 07:38:46;;;;;;;;;;;25.10;48.10;;;;;;5092256;28;20001;-61
2023/10/01 07:41:25;;;;;;;;;;;25.10;48.00;;;;;;5092527;28;20337;-62
2023/10/01 07:43:55;;;;;;;;;;;25.10;47.90;;;;;;5093772;28;20320;-60
2023/10/01 07:46:22;;;;;;;;;;;25.20;47.90;;;;;;5092003;28;20369;-63
2023/10/01 07:48:51;;;;;;;;;;;25.20;47.90;;;;;;5092113;28;19924;-62
2023/10/01 07:51:30;;;;;;;;;;;25.20;47.80;;;;;;5092184;28;20030;-61
2023/10/01 07:53:59;;;;;;;;;;;25.20;47.70;;;;;;5092798;28;20292;-61
2023/10/01 07:56:27;;;;;;;;;;;25.20;47.70;;;;;;5092699;28;19924;-61
2023/10/01 07:59:16;;;;;;;;;;;25.30;47.70;;;;;;5092834;28;19924;-61
2023/10/01 08:01:45;;;;;;;;;;;25.30;47.60;;;;;;5092551;28;20280;-60
2023/10/01 08:04:50;;;;;;;;;;;25.30;47.50;;;;;;5092188;28;19971;-60
2023/10/01 08:07:06;;;;;;;;;;;25.30;47.40;;;;;;5092839;28;19924;-60
2023/10/01 08:09:33;;;;;;;;;;;25.30;47.40;;;;;;5092458;28;19978;-60
2023/10/01 08:12:07;;;;;;;;;;;25.30;47.30;;;;;;5092357;28;20027;-60
2023/10/01 08:14:34;;;;;;;;;;;25.40;47.30;;;;;;5092223;28;20408;-60
2023/10/01 08:17:02;;;;;;;;;;;25.40;47.20;;;;;;5097726;28;19924;-60
2023/10/01 08:19:44;;;;;;;;;;;25.40;47.20;;;;;;5096572;28;20372;-61
2023/10/01 08:22:43;;;;;;;;;;;25.40;47.00;;;;;;5096360;28;20449;-61
2023/10/01 08:25:08;;;;;;;;;;;25.40;47.00;;;;;;5095966;28;19924;-60
2023/10/01 08:28:07;;;;;;;;;;;25.40;47.00;;;;;;5096985;28;19924;-60
2023/10/01 08:30:38;;;;;;;;;;;25.40;46.80;;;;;;5096721;28;19925;-60
2023/10/01 08:33:19;;;;;;;;;;;25.50;46.90;;;;;;5096942;28;19924;-61
2023/10/01 08:38:37;;;;;;;;;;;25.50;46.70;;;;;;5096450;28;20010;-61
2023/10/01 08:41:05;;;;;;;;;;;25.50;46.60;;;;;;5096864;28;19974;-60
2023/10/01 08:43:36;;;;;;;;;;;25.60;46.60;;;;;;5096399;28;19928;-61
2023/10/01 08:46:15;;;;;;;;;;;25.60;46.50;;;;;;5095445;28;19950;-60
2023/10/01 08:48:43;;;;;;;;;;;25.60;46.30;;;;;;5096172;28;19931;-60
2023/10/01 08:51:11;;;;;;;;;;;25.60;46.30;;;;;;5095584;28;20022;-60
2023/10/01 08:53:41;;;;;;;;;;;25.60;46.20;;;;;;5096020;28;19975;-61
2023/10/01 08:56:13;;;;;;;;;;;25.70;46.20;;;;;;5095613;28;19928;-60
2023/10/01 08:58:50;;;;;;;;;;;25.70;46.10;;;;;;5095508;28;19924;-60
2023/10/01 09:01:20;;;;;;;;;;;25.70;46.00;;;;;;5094846;28;19978;-60
2023/10/01 09:03:55;;;;;;;;;;;25.70;46.00;;;;;;5095697;28;20362;-61
2023/10/01 09:06:27;;;;;;;;;;;25.70;45.90;;;;;;5096200;28;19928;-60
2023/10/01 09:09:19;;;;;;;;;;;25.70;45.80;;;;;;5095747;28;19935;-60
2023/10/01 09:11:50;;;;;;;;;;;25.70;46.30;;;;;;5095942;28;19928;-61
2023/10/01 09:14:34;;;;;;;;;;;25.70;45.70;;;;;;5096125;28;19924;-60
2023/10/01 09:17:24;;;;;;;;;;;25.70;45.60;;;;;;5095811;28;19924;-60
2023/10/01 09:19:53;;;;;;;;;;;25.70;45.50;;;;;;5096192;28;20327;-61
2023/10/01 09:22:42;;;;;;;;;;;25.80;45.50;;;;;;5095459;28;19924;-60
2023/10/01 09:25:19;;;;;;;;;;;25.80;45.50;;;;;;5094756;28;19931;-61
2023/10/01 09:28:19;;;;;;;;;;;25.80;45.30;;;;;;5094090;28;20001;-60
2023/10/01 09:30:55;;;;;;;;;;;25.80;45.20;;;;;;5094652;28;19931;-61
2023/10/01 09:33:26;;;;;;;;;;;25.80;45.20;;;;;;5095078;28;19924;-60
2023/10/01 09:35:59;;;;;;;;;;;25.90;45.40;;;;;;5094180;28;20284;-60
2023/10/01 09:38:29;;;;;;;;;;;25.90;45.10;;;;;;5094294;28;20280;-60
2023/10/01 09:40:58;;;;;;;;;;;25.90;45.00;;;;;;5095398;28;20224;-60
2023/10/01 09:43:30;;;;;;;;;;;25.90;44.90;;;;;;5093487;28;19924;-60
2023/10/01 09:46:02;;;;;;;;;;;25.90;44.80;;;;;;5094825;28;19924;-60
2023/10/01 09:48:48;;;;;;;;;;;25.90;44.80;;;;;;5095810;28;19924;-60
2023/10/01 09:51:16;;;;;;;;;;;25.90;44.90;;;;;;5094754;28;19924;-60
2023/10/01 09:53:51;;;;;;;;;;;26.00;44.70;;;;;;5094810;28;20023;-61
2023/10/01 09:59:11;;;;;;;;;;;26.00;44.50;;;;;;5095209;28;20449;-60
2023/10/01 10:01:42;;;;;;;;;;;26.00;44.50;;;;;;5094302;28;19924;-60
2023/10/01 10:04:10;;;;;;;;;;;26.00;44.50;;;;;;5095499;28;19928;-60
2023/10/01 10:06:41;;;;;;;;;;;26.00;44.40;;;;;;5095275;28;19924;-60
2023/10/01 10:09:25;;;;;;;;;;;26.00;44.30;;;;;;5094683;28;19954;-60
2023/10/01 10:11:53;;;;;;;;;;;26.00;44.20;;;;;;5095073;28;19924;-61
2023/10/01 10:14:44;;;;;;;;;;;26.10;44.30;;;;;;5095405;28;19924;-60
2023/10/01 10:17:18;;;;;;;;;;;26.10;44.20;;;;;;5093952;28;19957;-60
2023/10/01 10:20:25;;;;;;;;;;;26.10;44.80;;;;;;5094357;28;20346;-61
2023/10/01 10:23:13;;;;;;;;;;;26.10;44.10;;;;;;5094299;28;19927;-60
2023/10/01 10:25:43;;;;;;;;;;;26.10;44.10;;;;;;5094768;28;19924;-60
2023/10/01 10:28:12;;;;;;;;;;;26.10;44.00;;;;;;5095301;28;19993;-60
2023/10/01 10:30:41;;;;;;;;;;;26.10;43.90;;;;;;5094947;28;20334;-60
2023/10/01 10:33:29;;;;;;;;;;;26.10;43.90;;;;;;5094461;28;20443;-60
2023/10/01 10:36:24;;;;;;;;;;;26.10;43.80;;;;;;5094709;28;19924;-61
2023/10/01 10:38:52;;;;;;;;;;;26.10;43.80;;;;;;5093930;28;19964;-61
2023/10/01 10:41:26;;;;;;;;;;;26.10;43.70;;;;;;5094231;28;20398;-60
2023/10/01 10:44:08;;;;;;;;;;;26.10;43.60;;;;;;5093889;28;19931;-61
2023/10/01 10:46:59;;;;;;;;;;;26.20;43.70;;;;;;5094879;28;19924;-60
2023/10/01 10:49:48;;;;;;;;;;;26.20;43.70;;;;;;5094063;28;19977;-61
2023/10/01 10:52:32;;;;;;;;;;;26.20;43.60;;;;;;5094356;28;20534;-60
2023/10/01 10:55:16;;;;;;;;;;;26.20;43.50;;;;;;5094234;28;19924;-61
2023/10/01 10:57:51;;;;;;;;;;;26.20;43.50;;;;;;5094083;28;20362;-60
2023/10/01 11:00:27;;;;;;;;;;;26.20;43.40;;;;;;5094738;28;19924;-60
2023/10/01 11:02:59;;;;;;;;;;;26.20;43.40;;;;;;5093788;28;19972;-61
2023/10/01 11:05:29;;;;;;;;;;;26.20;43.30;;;;;;5093718;28;19924;-60
2023/10/01 11:07:58;;;;;;;;;;;26.30;43.30;;;;;;5094039;28;19924;-61
2023/10/01 11:10:29;;;;;;;;;;;26.30;43.30;;;;;;5093957;28;19924;-60
2023/10/01 11:12:56;;;;;;;;;;;26.30;43.20;;;;;;5094113;28;19977;-61
2023/10/01 11:15:34;;;;;;;;;;;26.30;43.20;;;;;;5093589;28;19977;-61
2023/10/01 11:18:01;;;;;;;;;;;26.30;43.10;;;;;;5093480;28;19924;-61
2023/10/01 11:20:35;;;;;;;;;;;26.40;43.10;;;;;;5093053;28;20542;-60
2023/10/01 11:23:08;;;;;;;;;;;26.40;43.00;;;;;;5094343;28;19924;-61
2023/10/01 11:25:40;;;;;;;;;;;26.40;42.90;;;;;;5092437;28;19977;-60
2023/10/01 11:28:08;;;;;;;;;;;26.40;42.90;;;;;;5093933;28;19924;-60
2023/10/01 11:30:42;;;;;;;;;;;26.40;43.50;;;;;;5093917;28;19924;-60
2023/10/01 11:33:13;;;;;;;;;;;26.40;42.90;;;;;;5093054;28;19930;-60
2023/10/01 11:36:06;;;;;;;;;;;26.40;42.90;;;;;;5093664;28;20023;-60
2023/10/01 11:38:37;;;;;;;;;;;26.40;42.90;;;;;;5093528;28;19924;-60
2023/10/01 11:41:07;;;;;;;;;;;26.40;42.80;;;;;;5093676;28;19924;-61
2023/10/01 11:43:36;;;;;;;;;;;26.40;42.80;;;;;;5093945;28;20339;-60
2023/10/01 11:46:21;;;;;;;;;;;26.40;42.80;;;;;;5093476;28;19924;-60
2023/10/01 11:49:02;;;;;;;;;;;26.40;42.70;;;;;;5092756;28;20030;-60
2023/10/01 11:51:31;;;;;;;;;;;26.50;42.80;;;;;;5093306;28;19938;-60
2023/10/01 11:54:09;;;;;;;;;;;26.40;42.70;;;;;;5093309;28;19967;-60
2023/10/01 11:56:37;;;;;;;;;;;26.50;42.70;;;;;;5093838;28;19931;-61
2023/10/01 11:59:17;;;;;;;;;;;26.40;42.60;;;;;;5093788;28;19959;-61
2023/10/01 12:01:49;;;;;;;;;;;26.50;42.70;;;;;;5092795;28;19979;-60
2023/10/01 12:04:24;;;;;;;;;;;26.50;42.70;;;;;;5093143;28;19924;-60
2023/10/01 12:06:54;;;;;;;;;;;26.40;42.60;;;;;;5093789;28;20007;-60
2023/10/01 12:09:24;;;;;;;;;;;26.40;42.50;;;;;;5092423;28;19966;-60
2023/10/01 12:12:04;;;;;;;;;;;26.50;42.60;;;;;;5093354;28;19931;-61
2023/10/01 12:14:32;;;;;;;;;;;26.50;42.60;;;;;;5093025;28;19924;-61
2023/10/01 12:17:01;;;;;;;;;;;26.50;42.60;;;;;;5093338;28;20373;-60
2023/10/01 12:19:29;;;;;;;;;;;26.50;42.60;;;;;;5093215;28;19969;-60
2023/10/01 12:22:05;;;;;;;;;;;26.50;42.50;;;;;;5092980;28;19968;-60
2023/10/01 12:24:49;;;;;;;;;;;26.50;42.50;;;;;;5092113;28;20035;-60
2023/10/01 12:30:29;;;;;;;;;;;26.50;42.40;;;;;;5091043;28;19928;-61
2023/10/01 12:33:02;;;;;;;;;;;26.50;42.40;;;;;;5092648;28;19957;-61
2023/10/01 12:35:31;;;;;;;;;;;26.50;42.30;;;;;;5092524;28;20137;-62
2023/10/01 12:38:10;;;;;;;;;;;26.50;42.30;;;;;;5092088;28;19986;-61
2023/10/01 12:40:37;;;;;;;;;;;26.50;42.30;;;;;;5093055;28;20202;-61
2023/10/01 12:45:52;;;;;;;;;;;26.60;42.30;;;;;;5092305;28;19924;-61
2023/10/01 12:48:20;;;;;;;;;;;26.60;42.30;;;;;;5092439;28;20396;-61
2023/10/01 12:51:00;;;;;;;;;;;26.60;42.30;;;;;;5091989;28;19960;-61
2023/10/01 12:53:27;;;;;;;;;;;26.60;42.30;;;;;;5092076;28;19928;-61
2023/10/01 12:55:56;;;;;;;;;;;26.60;42.30;;;;;;5091855;28;20020;-60
2023/10/01 12:58:35;;;;;;;;;;;26.60;42.30;;;;;;5091221;28;19925;-60
2023/10/01 13:01:03;;;;;;;;;;;26.60;42.30;;;;;;5093584;28;19924;-60
2023/10/01 13:03:30;;;;;;;;;;;26.60;42.30;;;;;;5095845;28;20376;-61
2023/10/01 13:06:05;;;;;;;;;;;26.60;42.30;;;;;;5095946;28;20019;-60
2023/10/01 13:08:34;;;;;;;;;;;26.60;42.30;;;;;;5096386;28;19930;-61
2023/10/01 13:11:02;;;;;;;;;;;26.60;42.30;;;;;;5094892;28;19963;-60
2023/10/01 13:13:35;;;;;;;;;;;26.50;42.20;;;;;;5095986;28;20303;-61
2023/10/01 13:16:03;;;;;;;;;;;26.60;42.30;;;;;;5095752;28;19930;-60
2023/10/01 13:18:31;;;;;;;;;;;26.60;42.30;;;;;;5095766;28;19983;-61
2023/10/01 13:20:59;;;;;;;;;;;26.50;42.30;;;;;;5095959;28;19970;-60
2023/10/01 13:23:28;;;;;;;;;;;26.50;42.30;;;;;;5095278;28;19925;-60
2023/10/01 13:26:05;;;;;;;;;;;26.60;42.40;;;;;;5095884;28;19931;-60
2023/10/01 13:28:46;;;;;;;;;;;26.50;42.30;;;;;;5093890;28;20011;-60
2023/10/01 13:31:40;;;;;;;;;;;26.60;42.30;;;;;;5094810;28;19931;-60
2023/10/01 13:34:32;;;;;;;;;;;26.60;42.30;;;;;;5095392;28;19959;-60
2023/10/01 13:39:52;;;;;;;;;;;26.60;42.30;;;;;;5094233;28;19931;-61
2023/10/01 14:10:15;;;;;;;;;;;26.50;42.10;;;;;;5094194;28;19924;-60
2023/10/01 14:12:56;;;;;;;;;;;26.50;42.20;;;;;;5093894;28;19924;-61
2023/10/01 14:15:24;;;;;;;;;;;26.40;42.20;;;;;;5093752;28;19971;-60
2023/10/01 14:17:54;;;;;;;;;;;26.50;42.40;;;;;;5093931;28;19924;-60
2023/10/01 14:20:44;;;;;;;;;;;26.40;42.40;;;;;;5093670;28;19924;-60
2023/10/01 14:25:59;;;;;;;;;;;26.30;42.60;;;;;;5094791;28;19977;-60
2023/10/01 14:28:27;;;;;;;;;;;26.30;42.70;;;;;;5094601;28;19928;-61
2023/10/01 14:31:05;;;;;;;;;;;26.30;42.80;;;;;;5094733;28;19924;-60
2023/10/01 14:33:34;;;;;;;;;;;26.20;42.80;;;;;;5094477;28;19928;-61
2023/10/01 14:36:04;;;;;;;;;;;26.20;43.00;;;;;;5094155;28;19931;-60
2023/10/01 14:38:37;;;;;;;;;;;26.10;43.00;;;;;;5094779;28;19928;-61
2023/10/01 14:41:05;;;;;;;;;;;26.10;43.10;;;;;;5094711;28;19931;-60
2023/10/01 14:43:32;;;;;;;;;;;26.10;43.20;;;;;;5094307;28;20030;-61
2023/10/01 14:46:00;;;;;;;;;;;26.10;43.30;;;;;;5094495;28;19984;-61
2023/10/01 14:48:27;;;;;;;;;;;26.00;43.30;;;;;;5077934;28;19931;-61
2023/10/01 14:50:56;;;;;;;;;;;26.00;43.40;;;;;;5077607;28;19974;-61
2023/10/01 14:53:23;;;;;;;;;;;26.00;43.50;;;;;;5072580;28;19924;-60
2023/10/01 14:55:54;;;;;;;;;;;26.00;43.60;;;;;;5072740;28;19925;-60
2023/10/01 14:58:22;;;;;;;;;;;25.90;43.50;;;;;;5073146;28;19931;-60
2023/10/01 15:00:49;;;;;;;;;;;25.90;43.70;;;;;;5073871;28;19935;-60
2023/10/01 15:03:17;;;;;;;;;;;25.90;43.80;;;;;;5073713;28;19970;-60
2023/10/01 15:05:44;;;;;;;;;;;25.90;43.90;;;;;;5072376;28;19983;-61
2023/10/01 15:08:11;;;;;;;;;;;25.80;43.90;;;;;;5072671;28;19928;-60
2023/10/01 15:10:49;;;;;;;;;;;25.80;43.90;;;;;;5073165;28;19929;-60
2023/10/01 15:13:17;;;;;;;;;;;25.80;44.00;;;;;;5073228;28;20015;-60
2023/10/01 15:15:56;;;;;;;;;;;25.80;44.10;;;;;;5073926;28;20373;-60
2023/10/01 15:18:32;;;;;;;;;;;25.80;44.10;;;;;;5073078;28;19929;-60
2023/10/01 15:21:10;;;;;;;;;;;25.70;44.10;;;;;;5073506;28;19929;-60
2023/10/01 15:23:44;;;;;;;;;;;25.70;44.20;;;;;;5072861;28;19924;-60
2023/10/01 15:26:12;;;;;;;;;;;25.70;44.30;;;;;;5072649;28;19932;-59
2023/10/01 15:28:50;;;;;;;;;;;25.70;44.40;;;;;;5072837;28;19986;-60
2023/10/01 15:31:23;;;;;;;;;;;25.70;44.50;;;;;;5072366;28;20011;-60
2023/10/01 15:34:00;;;;;;;;;;;25.60;44.50;;;;;;5073862;28;19968;-60
2023/10/01 15:36:47;;;;;;;;;;;25.60;44.60;;;;;;5072625;28;19939;-60
2023/10/01 15:39:37;;;;;;;;;;;25.60;44.70;;;;;;5073689;28;19924;-60
2023/10/01 15:42:11;;;;;;;;;;;25.50;44.70;;;;;;5072666;28;20032;-60
2023/10/01 15:44:50;;;;;;;;;;;25.50;44.80;;;;;;5072960;28;20455;-62
2023/10/01 15:50:06;;;;;;;;;;;25.40;45.00;;;;;;5072129;28;20427;-60
2023/10/01 15:52:46;;;;;;;;;;;25.40;45.10;;;;;;5072617;28;20010;-60
2023/10/01 15:55:15;;;;;;;;;;;25.40;45.20;;;;;;5072351;28;19978;-60
2023/10/01 15:57:43;;;;;;;;;;;25.30;45.20;;;;;;5073433;28;19925;-60